createdAt,value
2022-10-05T00:02:24.049Z,20.00
2022-10-05T00:04:56.385Z,18.35
2022-10-05T00:07:24.609Z,19.80
2022-10-05T00:09:56.938Z,17.55
2022-10-05T00:12:25.541Z,19.65
2022-10-05T00:14:55.482Z,16.83
2022-10-05T00:17:24.442Z,15.93
2022-10-05T00:19:52.975Z,17.50
2022-10-05T00:22:28.892Z,16.85
2022-10-05T00:24:58.304Z,18.60
2022-10-05T00:27:26.681Z,17.95
2022-10-05T00:29:57.536Z,18.15
2022-10-05T00:32:24.076Z,17.98
2022-10-05T00:34:50.675Z,14.10
2022-10-05T00:37:17.233Z,16.27
2022-10-05T00:39:44.321Z,16.35
2022-10-05T00:42:10.790Z,14.30
2022-10-05T00:45:01.255Z,17.15
2022-10-05T00:47:42.101Z,17.23
2022-10-05T00:50:11.314Z,21.40
2022-10-05T00:53:04.454Z,16.35
2022-10-05T00:56:00.180Z,20.05
2022-10-05T00:58:35.741Z,19.50
2022-10-05T01:01:13.678Z,27.45
2022-10-05T01:03:49.299Z,17.27
2022-10-05T01:06:29.722Z,20.38
2022-10-05T01:09:18.504Z,21.35
2022-10-05T01:11:44.919Z,20.23
2022-10-05T01:14:43.418Z,18.02
2022-10-05T01:17:20.447Z,18.60
2022-10-05T01:20:23.517Z,20.42
2022-10-05T01:23:08.730Z,19.65
2022-10-05T01:25:52.232Z,23.55
2022-10-05T01:28:34.565Z,21.70
2022-10-05T01:31:13.400Z,20.75
2022-10-05T01:33:46.442Z,19.52
2022-10-05T01:36:25.652Z,15.65
2022-10-05T01:39:06.028Z,21.00
2022-10-05T01:41:41.544Z,16.10
2022-10-05T01:44:40.369Z,18.23
2022-10-05T01:47:33.969Z,17.92
2022-10-05T01:50:01.991Z,17.67
2022-10-05T01:52:48.361Z,15.45
2022-10-05T01:55:19.088Z,16.77
2022-10-05T01:58:35.721Z,16.10
2022-10-05T02:01:14.940Z,15.30
2022-10-05T02:03:53.123Z,16.45
2022-10-05T02:06:27.895Z,16.77
2022-10-05T02:09:03.011Z,15.52
2022-10-05T02:11:29.582Z,17.60
2022-10-05T02:14:07.565Z,22.45
2022-10-05T02:16:43.707Z,22.27
2022-10-05T02:19:21.519Z,24.48
2022-10-05T02:21:54.772Z,26.13
2022-10-05T02:24:29.734Z,23.25
2022-10-05T02:26:56.699Z,25.80
2022-10-05T02:29:28.110Z,25.35
2022-10-05T02:32:04.371Z,24.80
2022-10-05T02:34:44.850Z,23.55
2022-10-05T02:37:25.456Z,29.45
2022-10-05T02:39:54.600Z,28.77
2022-10-05T02:42:27.244Z,22.70
2022-10-05T02:45:18.594Z,21.30
2022-10-05T02:48:04.812Z,24.42
2022-10-05T02:50:53.634Z,28.50
2022-10-05T02:53:45.067Z,21.60
2022-10-05T02:56:36.553Z,24.50
2022-10-05T02:59:16.210Z,24.55
2022-10-05T03:01:54.550Z,20.05
2022-10-05T03:04:27.676Z,19.45
2022-10-05T03:07:02.333Z,21.00
2022-10-05T03:09:35.435Z,20.92
2022-10-05T03:12:12.606Z,22.08
2022-10-05T03:14:51.123Z,21.58
2022-10-05T03:17:34.700Z,24.02
2022-10-05T03:20:10.164Z,20.75
2022-10-05T03:22:51.112Z,20.10
2022-10-05T03:25:42.004Z,17.48
2022-10-05T03:28:26.935Z,19.90
2022-10-05T03:31:05.093Z,20.23
2022-10-05T03:33:48.878Z,19.08
2022-10-05T03:36:22.737Z,20.92
2022-10-05T03:39:14.309Z,20.08
2022-10-05T03:41:56.437Z,30.25
2022-10-05T03:44:41.317Z,25.20
2022-10-05T03:47:14.465Z,35.63
2022-10-05T03:49:59.043Z,38.47
2022-10-05T03:52:37.048Z,40.15
2022-10-05T03:55:34.263Z,47.72
2022-10-05T03:58:06.743Z,43.45
2022-10-05T04:00:36.893Z,44.28
2022-10-05T04:03:21.310Z,41.90
2022-10-05T04:05:52.060Z,44.70
2022-10-05T04:08:48.064Z,45.78
2022-10-05T04:11:21.615Z,39.00
2022-10-05T04:14:07.144Z,39.55
2022-10-05T04:16:43.955Z,38.30
2022-10-05T04:19:19.000Z,34.15
2022-10-05T04:22:11.546Z,34.75
2022-10-05T04:24:56.026Z,30.25
2022-10-05T04:27:30.923Z,30.80
2022-10-05T04:30:12.658Z,27.05
2022-10-05T04:32:42.754Z,27.67
2022-10-05T04:35:34.131Z,26.80
2022-10-05T04:38:19.433Z,36.20
2022-10-05T04:41:18.431Z,26.45
2022-10-05T04:44:06.885Z,31.00
2022-10-05T04:47:04.356Z,29.13
2022-10-05T04:50:07.757Z,31.20
2022-10-05T04:52:52.208Z,30.35
2022-10-05T04:55:51.462Z,30.75
2022-10-05T04:58:42.062Z,29.00
2022-10-05T05:01:36.389Z,36.60
2022-10-05T05:04:27.223Z,30.90
2022-10-05T05:09:53.224Z,32.08
2022-10-05T05:12:40.003Z,34.63
2022-10-05T05:16:04.044Z,34.53
2022-10-05T05:18:42.378Z,32.45
2022-10-05T05:21:38.168Z,33.00
2022-10-05T05:24:40.185Z,31.20
2022-10-05T05:27:09.265Z,34.28
2022-10-05T05:30:21.391Z,39.13
2022-10-05T05:33:02.768Z,38.92
2022-10-05T05:35:35.430Z,39.33
2022-10-05T05:38:07.588Z,37.45
2022-10-05T05:40:40.454Z,40.45
2022-10-05T05:43:24.641Z,35.90
2022-10-05T05:46:00.100Z,45.65
2022-10-05T05:48:29.201Z,42.28
2022-10-05T05:51:08.605Z,34.08
2022-10-05T05:53:45.410Z,32.58
2022-10-05T05:56:19.179Z,32.22
2022-10-05T05:59:10.720Z,29.95
2022-10-05T06:01:46.093Z,33.90
2022-10-05T06:04:18.513Z,34.60
2022-10-05T06:06:52.408Z,34.35
2022-10-05T06:09:36.909Z,35.05
2022-10-05T06:12:10.136Z,30.15
2022-10-05T06:14:55.601Z,31.35
2022-10-05T06:17:33.874Z,35.92
2022-10-05T06:20:05.477Z,37.33
2022-10-05T06:22:43.729Z,42.25
2022-10-05T06:25:12.974Z,35.75
2022-10-05T06:28:11.539Z,39.45
2022-10-05T06:30:59.062Z,37.20
2022-10-05T06:33:45.336Z,36.63
2022-10-05T06:36:29.687Z,40.38
2022-10-05T06:39:20.647Z,41.80
2022-10-05T06:42:20.149Z,39.45
2022-10-05T06:44:46.593Z,37.67
2022-10-05T06:47:33.827Z,35.60
2022-10-05T06:50:15.583Z,39.80
2022-10-05T06:53:07.243Z,38.88
2022-10-05T06:55:45.706Z,43.05
2022-10-05T06:58:38.288Z,39.35
2022-10-05T07:01:33.628Z,42.28
2022-10-05T07:04:08.598Z,39.58
2022-10-05T07:06:46.192Z,43.45
2022-10-05T07:09:18.974Z,36.40
2022-10-05T07:12:17.748Z,47.67
2022-10-05T07:15:20.817Z,45.30
2022-10-05T07:18:09.418Z,49.15
2022-10-05T07:20:57.869Z,51.65
2022-10-05T07:23:43.068Z,51.58
2022-10-05T07:26:21.948Z,51.50
2022-10-05T07:29:10.671Z,47.60
2022-10-05T07:31:49.793Z,49.08
2022-10-05T07:34:35.724Z,50.67
2022-10-05T07:37:36.092Z,49.72
2022-10-05T07:40:14.471Z,46.88
2022-10-05T07:42:59.991Z,53.17
2022-10-05T07:45:38.051Z,48.28
2022-10-05T07:48:48.215Z,45.55
2022-10-05T07:51:31.488Z,39.88
2022-10-05T07:54:21.544Z,35.63
2022-10-05T07:57:16.847Z,41.22
2022-10-05T07:59:52.409Z,41.05
2022-10-05T08:02:28.207Z,40.33
2022-10-05T08:05:13.321Z,34.15
2022-10-05T08:07:40.818Z,27.80
2022-10-05T08:10:30.105Z,32.15
2022-10-05T08:13:34.742Z,30.38
2022-10-05T08:16:05.354Z,35.10
2022-10-05T08:21:23.205Z,37.97
2022-10-05T08:23:58.142Z,40.35
2022-10-05T08:26:29.111Z,42.55
2022-10-05T08:29:13.804Z,41.63
2022-10-05T08:31:45.042Z,43.33
2022-10-05T08:34:50.112Z,41.33
2022-10-05T08:37:33.578Z,40.28
2022-10-05T08:40:18.908Z,36.97
2022-10-05T08:42:57.996Z,38.13
2022-10-05T08:46:21.028Z,34.95
2022-10-05T08:49:08.805Z,26.88
2022-10-05T08:52:25.729Z,26.20
2022-10-05T08:55:10.208Z,29.02
2022-10-05T08:58:07.564Z,24.05
2022-10-05T09:00:52.929Z,30.75
2022-10-05T09:03:35.591Z,27.95
2022-10-05T09:06:02.066Z,36.75
2022-10-05T09:08:47.314Z,30.08
2022-10-05T09:11:32.669Z,32.83
2022-10-05T09:14:11.767Z,31.40
2022-10-05T09:17:06.730Z,31.50
2022-10-05T09:20:15.249Z,29.65
2022-10-05T09:22:41.770Z,31.20
2022-10-05T09:25:23.580Z,31.60
2022-10-05T09:27:57.637Z,32.65
2022-10-05T09:30:59.480Z,35.95
2022-10-05T09:33:47.518Z,33.22
2022-10-05T09:36:20.538Z,34.22
2022-10-05T09:39:18.780Z,31.55
2022-10-05T09:41:57.288Z,33.80
2022-10-05T09:45:01.668Z,37.17
2022-10-05T09:48:05.676Z,33.85
2022-10-05T09:50:38.195Z,33.95
2022-10-05T09:53:41.035Z,35.45
2022-10-05T09:59:35.791Z,34.10
2022-10-05T10:02:39.148Z,33.05
2022-10-05T10:05:24.316Z,31.20
2022-10-05T10:07:56.737Z,27.73
2022-10-05T10:10:42.004Z,28.90
2022-10-05T10:13:38.205Z,30.70
2022-10-05T10:16:20.026Z,28.50
2022-10-05T10:19:12.612Z,31.40
2022-10-05T10:22:05.116Z,28.33
2022-10-05T10:25:09.236Z,31.67
2022-10-05T10:28:03.116Z,27.17
2022-10-05T10:30:58.601Z,27.15
2022-10-05T10:33:31.140Z,27.05
2022-10-05T10:36:09.630Z,30.50
2022-10-05T10:38:51.396Z,27.00
2022-10-05T10:41:55.064Z,28.65
2022-10-05T10:44:27.715Z,24.27
2022-10-05T10:47:38.199Z,23.02
2022-10-05T10:50:42.449Z,22.23
2022-10-05T10:53:37.080Z,25.02
2022-10-05T10:56:18.420Z,22.35
2022-10-05T10:59:35.329Z,22.90
2022-10-05T11:02:24.746Z,27.20
2022-10-05T11:05:09.904Z,20.77
2022-10-05T11:07:54.754Z,23.25
2022-10-05T11:10:51.920Z,20.45
2022-10-05T11:13:27.505Z,20.92
2022-10-05T11:16:14.617Z,21.85
2022-10-05T11:19:35.191Z,20.42
2022-10-05T11:22:44.540Z,19.10
2022-10-05T11:25:31.201Z,18.60
2022-10-05T11:28:25.560Z,16.30
2022-10-05T11:31:13.650Z,19.52
2022-10-05T11:34:01.772Z,15.63
2022-10-05T11:36:47.318Z,14.55
2022-10-05T11:39:16.507Z,13.30
2022-10-05T11:42:14.146Z,16.55
2022-10-05T11:44:57.549Z,11.52
2022-10-05T11:47:31.561Z,13.45
2022-10-05T11:50:07.117Z,16.17
2022-10-05T11:52:39.753Z,10.75
2022-10-05T11:55:26.350Z,10.55
2022-10-05T11:58:01.839Z,9.55
2022-10-05T12:00:36.141Z,13.23
2022-10-05T12:03:38.325Z,9.35
2022-10-05T12:06:43.215Z,9.95
2022-10-05T12:09:21.788Z,8.50
2022-10-05T12:12:11.047Z,9.38
2022-10-05T12:14:50.572Z,8.43
2022-10-05T12:17:28.451Z,10.77
2022-10-05T12:20:01.218Z,6.35
2022-10-05T12:22:40.717Z,9.48
2022-10-05T12:25:19.204Z,7.32
2022-10-05T12:27:49.270Z,6.47
2022-10-05T12:30:43.561Z,6.75
2022-10-05T12:33:21.341Z,5.55
2022-10-05T12:35:58.110Z,11.75
2022-10-05T12:38:36.959Z,6.93
2022-10-05T12:41:33.965Z,5.57
2022-10-05T12:44:43.201Z,3.72
2022-10-05T12:47:35.749Z,7.78
2022-10-05T12:50:22.577Z,4.47
2022-10-05T12:53:50.480Z,4.35
2022-10-05T12:56:24.265Z,4.78
2022-10-05T12:59:39.125Z,8.30
2022-10-05T13:02:33.924Z,4.35
2022-10-05T13:05:09.616Z,4.18
2022-10-05T13:07:57.504Z,4.10
2022-10-05T13:10:33.159Z,5.97
2022-10-05T13:13:17.727Z,5.68
2022-10-05T13:15:52.529Z,6.50
2022-10-05T13:18:32.020Z,5.97
2022-10-05T13:21:21.505Z,5.78
2022-10-05T13:23:57.218Z,5.38
2022-10-05T13:26:32.180Z,6.10
2022-10-05T13:29:03.161Z,4.07
2022-10-05T13:32:19.321Z,3.83
2022-10-05T13:34:51.469Z,3.92
2022-10-05T13:37:44.226Z,5.13
2022-10-05T13:40:25.731Z,4.95
2022-10-05T13:43:44.075Z,5.97
2022-10-05T13:46:28.598Z,6.82
2022-10-05T13:49:20.852Z,5.90
2022-10-05T13:52:08.788Z,4.13
2022-10-05T13:54:42.829Z,6.40
2022-10-05T13:57:27.864Z,4.63
2022-10-05T13:59:58.383Z,5.32
2022-10-05T14:02:31.244Z,5.70
2022-10-05T14:05:01.093Z,8.73
2022-10-05T14:07:39.180Z,5.93
2022-10-05T14:10:14.329Z,4.07
2022-10-05T14:12:43.413Z,4.95
2022-10-05T14:15:28.044Z,4.07
2022-10-05T14:17:54.965Z,6.63
2022-10-05T14:20:26.927Z,6.63
2022-10-05T14:23:17.367Z,4.45
2022-10-05T14:25:54.144Z,5.95
2022-10-05T14:28:28.534Z,4.93
2022-10-05T14:31:16.390Z,5.75
2022-10-05T14:33:43.260Z,4.18
2022-10-05T14:36:22.403Z,6.43
2022-10-05T14:38:55.802Z,4.97
2022-10-05T14:41:27.780Z,3.50
2022-10-05T14:44:20.731Z,4.07
2022-10-05T14:46:54.676Z,4.80
2022-10-05T14:49:27.054Z,4.13
2022-10-05T14:51:55.804Z,4.07
2022-10-05T14:54:30.045Z,8.65
2022-10-05T14:57:37.624Z,3.85
2022-10-05T15:00:26.032Z,5.65
2022-10-05T15:03:19.552Z,7.78
2022-10-05T15:05:52.517Z,5.93
2022-10-05T15:08:41.496Z,5.88
2022-10-05T15:11:17.117Z,4.32
2022-10-05T15:13:47.551Z,6.45
2022-10-05T15:19:02.482Z,4.40
2022-10-05T15:21:39.479Z,4.78
2022-10-05T15:24:20.197Z,6.25
2022-10-05T15:27:00.031Z,5.32
2022-10-05T15:29:52.416Z,7.47
2022-10-05T15:32:34.456Z,5.90
2022-10-05T15:35:38.155Z,4.38
2022-10-05T15:38:13.798Z,4.68
2022-10-05T15:41:06.223Z,6.35
2022-10-05T15:44:14.694Z,5.60
2022-10-05T15:46:56.523Z,4.03
2022-10-05T15:49:25.691Z,6.18
2022-10-05T15:52:04.301Z,4.30
2022-10-05T15:54:55.189Z,6.20
2022-10-05T15:57:30.306Z,7.40
2022-10-05T16:00:14.353Z,6.25
2022-10-05T16:02:48.638Z,5.85
2022-10-05T16:05:51.272Z,8.38
2022-10-05T16:08:54.238Z,5.47
2022-10-05T16:11:44.395Z,5.30
2022-10-05T16:14:28.718Z,7.80
2022-10-05T16:17:19.605Z,8.40
2022-10-05T16:20:03.370Z,7.85
2022-10-05T16:22:42.539Z,5.65
2022-10-05T16:25:34.620Z,7.80
2022-10-05T16:28:29.374Z,5.40
2022-10-05T16:31:31.598Z,9.10
2022-10-05T16:34:31.462Z,7.63
2022-10-05T16:37:10.195Z,7.70
2022-10-05T16:39:49.260Z,6.35
2022-10-05T16:42:21.512Z,6.50
2022-10-05T16:45:20.468Z,6.30
2022-10-05T16:48:21.939Z,6.38
2022-10-05T16:50:55.179Z,7.80
2022-10-05T16:53:40.227Z,11.68
2022-10-05T16:56:13.168Z,11.05
2022-10-05T16:58:50.363Z,6.70
2022-10-05T17:01:42.146Z,7.53
2022-10-05T17:04:14.639Z,9.20
2022-10-05T17:07:03.055Z,7.82
2022-10-05T17:10:00.939Z,11.73
2022-10-05T17:13:02.971Z,9.35
2022-10-05T17:15:56.524Z,9.43
2022-10-05T17:18:49.398Z,9.27
2022-10-05T17:21:25.765Z,14.43
2022-10-05T17:24:07.845Z,11.10
2022-10-05T17:26:55.822Z,11.77
2022-10-05T17:29:22.721Z,9.23
2022-10-05T17:32:07.318Z,8.98
2022-10-05T17:34:37.588Z,14.30
2022-10-05T17:37:32.002Z,10.18
2022-10-05T17:39:59.023Z,7.25
2022-10-05T17:42:31.531Z,10.48
2022-10-05T17:45:00.241Z,16.92
2022-10-05T17:47:55.025Z,16.00
2022-10-05T17:51:04.225Z,10.23
2022-10-05T17:54:01.612Z,11.23
2022-10-05T17:56:30.585Z,13.00
2022-10-05T17:59:03.328Z,12.38
2022-10-05T18:01:33.330Z,11.75
2022-10-05T18:04:12.823Z,11.43
2022-10-05T18:07:00.261Z,12.93
2022-10-05T18:09:27.714Z,13.45
2022-10-05T18:12:16.582Z,11.05
2022-10-05T18:14:58.838Z,9.80
2022-10-05T18:17:52.480Z,10.55
2022-10-05T18:20:19.198Z,10.02
2022-10-05T18:22:48.080Z,10.02
2022-10-05T18:25:48.354Z,9.20
2022-10-05T18:28:39.373Z,8.45
2022-10-05T18:31:30.828Z,8.43
2022-10-05T18:34:47.111Z,6.78
2022-10-05T18:37:37.101Z,8.80
2022-10-05T18:40:22.802Z,9.68
2022-10-05T18:43:17.199Z,8.23
2022-10-05T18:46:03.253Z,6.40
2022-10-05T18:49:10.623Z,9.65
2022-10-05T18:51:43.193Z,8.23
2022-10-05T18:54:13.536Z,7.40
2022-10-05T18:56:48.650Z,6.63
2022-10-05T18:59:51.327Z,5.50
2022-10-05T19:02:51.039Z,6.18
2022-10-05T19:05:49.146Z,6.80
2022-10-05T19:08:39.269Z,5.13
2022-10-05T19:11:19.128Z,5.18
2022-10-05T19:14:23.203Z,4.20
2022-10-05T19:16:59.171Z,4.45
2022-10-05T19:19:35.726Z,7.35
2022-10-05T19:22:23.069Z,4.40
2022-10-05T19:25:28.523Z,5.22
2022-10-05T19:28:07.355Z,3.78
2022-10-05T19:30:53.633Z,5.22
2022-10-05T19:33:32.712Z,4.60
2022-10-05T19:36:24.124Z,5.13
2022-10-05T19:38:56.570Z,4.55
2022-10-05T19:41:35.633Z,5.88
2022-10-05T19:44:24.672Z,5.18
2022-10-05T19:47:00.458Z,4.50
2022-10-05T19:49:49.169Z,4.72
2022-10-05T19:52:28.931Z,4.78
2022-10-05T19:55:22.379Z,4.13
2022-10-05T19:57:51.747Z,7.57
2022-10-05T20:00:24.705Z,5.68
2022-10-05T20:03:07.746Z,5.88
2022-10-05T20:05:36.962Z,5.80
2022-10-05T20:08:05.334Z,4.15
2022-10-05T20:10:32.822Z,5.90
2022-10-05T20:13:04.148Z,4.57
2022-10-05T20:15:54.713Z,4.05
2022-10-05T20:21:48.090Z,4.30
2022-10-05T20:24:28.963Z,4.03
2022-10-05T20:27:06.285Z,5.03
2022-10-05T20:29:38.544Z,6.25
2022-10-05T20:32:08.843Z,6.15
2022-10-05T20:34:43.912Z,7.78
2022-10-05T20:37:12.954Z,5.20
2022-10-05T20:39:41.179Z,4.97
2022-10-05T20:42:08.426Z,3.45
2022-10-05T20:44:35.645Z,7.70
2022-10-05T20:47:02.265Z,4.47
2022-10-05T20:49:31.263Z,4.53
2022-10-05T20:52:01.367Z,5.80
2022-10-05T20:54:27.970Z,3.97
2022-10-05T20:56:55.786Z,3.83
2022-10-05T20:59:24.183Z,6.22
2022-10-05T21:01:51.401Z,4.80
2022-10-05T21:04:19.627Z,4.53
2022-10-05T21:06:46.641Z,7.07
2022-10-05T21:09:15.087Z,4.93
2022-10-05T21:11:42.491Z,3.95
2022-10-05T21:14:10.063Z,9.05
2022-10-05T21:16:38.257Z,9.88
2022-10-05T21:19:14.646Z,10.95
2022-10-05T21:21:42.928Z,13.20
2022-10-05T21:24:11.184Z,10.90
2022-10-05T21:26:37.734Z,8.25
2022-10-05T21:29:08.953Z,10.35
2022-10-05T21:31:37.182Z,7.43
2022-10-05T21:34:04.228Z,8.20
2022-10-05T21:36:30.820Z,7.63
2022-10-05T21:38:57.538Z,7.45
2022-10-05T21:41:24.186Z,5.78
2022-10-05T21:43:50.719Z,4.60
2022-10-05T21:46:21.370Z,6.93
2022-10-05T21:48:48.615Z,7.85
2022-10-05T21:51:18.545Z,5.13
2022-10-05T21:53:51.928Z,5.07
2022-10-05T21:56:22.523Z,4.60
2022-10-05T22:01:22.257Z,4.43
2022-10-05T22:03:49.418Z,6.95
2022-10-05T22:06:16.017Z,3.97
2022-10-05T22:08:42.848Z,5.68
2022-10-05T22:11:15.840Z,6.78
2022-10-05T22:13:48.219Z,5.72
2022-10-05T22:16:16.192Z,6.00
2022-10-05T22:18:43.363Z,4.85
2022-10-05T22:21:12.187Z,4.47
2022-10-05T22:23:44.127Z,5.03
2022-10-05T22:26:13.213Z,5.28
2022-10-05T22:28:40.059Z,5.45
2022-10-05T22:31:08.059Z,4.85
2022-10-05T22:33:34.577Z,4.15
2022-10-05T22:36:01.394Z,4.80
2022-10-05T22:38:30.461Z,6.13
2022-10-05T22:40:57.790Z,6.47
2022-10-05T22:43:26.976Z,7.15
2022-10-05T22:45:54.287Z,4.13
2022-10-05T22:48:20.883Z,4.57
2022-10-05T22:50:47.944Z,4.25
2022-10-05T22:53:14.637Z,5.32
2022-10-05T22:55:41.190Z,7.65
2022-10-05T22:58:07.804Z,6.20
2022-10-05T23:00:56.362Z,5.43
2022-10-05T23:03:20.790Z,6.03
2022-10-05T23:05:47.261Z,10.40
2022-10-05T23:08:13.762Z,7.25
2022-10-05T23:10:40.327Z,6.88
2022-10-05T23:13:07.350Z,4.85
2022-10-05T23:15:34.351Z,4.03
2022-10-05T23:18:00.849Z,7.72
2022-10-05T23:20:27.507Z,5.32
2022-10-05T23:22:54.058Z,4.60
2022-10-05T23:25:22.197Z,5.90
2022-10-05T23:27:48.826Z,5.20
2022-10-05T23:30:15.477Z,8.57
2022-10-05T23:32:43.671Z,6.65
2022-10-05T23:35:12.749Z,4.30
2022-10-05T23:37:44.040Z,5.95
2022-10-05T23:40:13.123Z,6.40
2022-10-05T23:42:40.879Z,5.72
2022-10-05T23:45:11.582Z,4.40
2022-10-05T23:47:39.407Z,6.07
2022-10-05T23:50:07.850Z,6.05
2022-10-05T23:52:35.407Z,6.25
2022-10-05T23:55:06.126Z,7.03
2022-10-05T23:57:32.754Z,7.20
